Home > Products > Valid Products > MTR

000
SAUS42 KCHS 182057
MTRNBC
METAR KNBC 182056Z 00000KT 10SM SCT250 17/05 A3007 RMK AO2 SLP183
T01670050 56009 $





000
SAUS42 KCHS 181957
MTRNBC
METAR KNBC 181956Z 08003KT 10SM FEW250 17/06 A3007 RMK AO2 SLP183
T01670056 $





000
SAUS42 KCHS 181857
MTRNBC
METAR KNBC 181856Z 00000KT 10SM FEW230 16/05 A3008 RMK AO2 SLP186
T01610050 $





000
SAUS42 KCHS 181757
MTRNBC
METAR KNBC 181756Z 11006KT 10SM FEW200 16/06 A3010 RMK AO2 SLP193
T01560061 10156 20050 58031 $





000
SAUS42 KCHS 181657
MTRNBC
METAR KNBC 181656Z 00000KT 10SM SCT200 14/06 A3014 RMK AO2 SLP206
T01390056 $





000
SAUS42 KCHS 181558
MTRNBC
METAR KNBC 181556Z 00000KT 10SM BKN200 11/06 A3017 RMK AO2 SLP217
T01110061 $





000
SAUS42 KCHS 181457
MTRNBC
METAR KNBC 181456Z 33004KT 10SM BKN200 09/06 A3019 RMK AO2 SLP224
T00940056 53017 $





000
SAUS42 KCHS 181357
MTRNBC
METAR KNBC 181356Z 30004KT 10SM BKN200 07/05 A3018 RMK AO2 SLP219
T00720050





000
SAUS42 KCHS 181357
MTRNBC
METAR KNBC 181356Z 30004KT 10SM BKN200 07/05 A3018 RMK AO2 SLP219
T00720050





000
SAUS42 KCHS 181257
MTRNBC
METAR KNBC 181256Z 00000KT 9SM BKN200 06/04 A3015 RMK AO2 SLP210
T00560039





000
SAUS42 KCHS 181257
MTRNBC
METAR KNBC 181256Z 00000KT 9SM BKN200 06/04 A3015 RMK AO2 SLP210
T00560039





000
SAUS42 KCHS 181157
MTRNBC
METAR KNBC 181156Z 31003KT 10SM BKN200 05/04 A3014 RMK AO2 SLP208
FIRST T00500039 10067 20039 53012





000
SAUS42 KCHS 181157
MTRNBC
METAR KNBC 181156Z 31003KT 10SM BKN200 05/04 A3014 RMK AO2 SLP208
FIRST T00500039 10067 20039 53012





000
SAUS42 KCHS 181131
MTRNBC
SPECI KNBC 181130Z 32003KT 10SM SCT200 06/04 A3014 RMK AO2 FIRST
T00560039 $





000
SAUS42 KCHS 181057
MTRNBC
METAR KNBC 181056Z AUTO 00000KT 10SM CLR 06/04 A3012 RMK AO2 SLP201
T00560044





000
SAUS42 KCHS 181057
MTRNBC
METAR KNBC 181056Z AUTO 00000KT 10SM CLR 06/04 A3012 RMK AO2 SLP201
T00560044





000
SAUS42 KCHS 180957
MTRNBC
METAR KNBC 180956Z AUTO 00000KT 10SM CLR 04/03 A3011 RMK AO2 SLP196
T00440033





000
SAUS42 KCHS 180857
MTRNBC
METAR KNBC 180856Z AUTO 23003KT 10SM CLR 04/03 A3011 RMK AO2 SLP196
T00440028 58001





000
SAUS42 KCHS 180857
MTRNBC
METAR KNBC 180856Z AUTO 23003KT 10SM CLR 04/03 A3011 RMK AO2 SLP196
T00440028 58001





000
SAUS42 KCHS 180757
MTRNBC
METAR KNBC 180756Z AUTO 00000KT 10SM CLR 07/04 A3011 RMK AO2 SLP196
T00670044





000
SAUS42 KCHS 180757
MTRNBC
METAR KNBC 180756Z AUTO 00000KT 10SM CLR 07/04 A3011 RMK AO2 SLP196
T00670044





000
SAUS42 KCHS 180657
MTRNBC
METAR KNBC 180656Z AUTO 24003KT 10SM CLR 04/03 A3012 RMK AO2 SLP198
T00440028





000
SAUS42 KCHS 180626
MTRNBC
SPECI KNBC 180625Z AUTO 22003KT 7SM SCT002 05/04 A3011 RMK AO2
T00500044





000
SAUS42 KCHS 180619
MTRNBC
SPECI KNBC 180618Z AUTO 22004KT 2 1/2SM BR SCT002 05/04 A3011 RMK
AO2 T00500039





000
SAUS42 KCHS 180609
MTRNBC
SPECI KNBC 180608Z AUTO 22004KT 7SM SCT002 04/04 A3011 RMK AO2
T00440039





000
SAUS42 KCHS 180557
MTRNBC
METAR KNBC 180556Z AUTO 23003KT 7SM CLR 04/03 A3011 RMK AO2 SLP197
T00440033 10106 20044 57005





000
SAUS42 KCHS 180458
MTRNBC
METAR KNBC 180456Z AUTO 23003KT 10SM CLR 07/05 A3012 RMK AO2 SLP198
T00670050 401830056





000
SAUS42 KCHS 180357
MTRNBC
METAR KNBC 180356Z 22004KT 10SM FEW150 SCT250 07/05 A3012 RMK AO2
SLP200 LAST T00670050





000
SAUS42 KCHS 180357
MTRNBC
METAR KNBC 180356Z 22004KT 10SM FEW150 SCT250 07/05 A3012 RMK AO2
SLP200 LAST T00670050





000
SAUS42 KCHS 180257
MTRNBC
METAR KNBC 180256Z 22004KT 10SM FEW150 SCT250 08/06 A3013 RMK AO2
SLP202 T00780056 52001





000
SAUS42 KCHS 180157
MTRNBC
METAR KNBC 180156Z 00000KT 10SM FEW150 SCT250 09/06 A3012 RMK AO2
SLP201 T00890061





000
SAUS42 KCHS 180157
MTRNBC
METAR KNBC 180156Z 00000KT 10SM FEW150 SCT250 09/06 A3012 RMK AO2
SLP201 T00890061





000
SAUS42 KCHS 180057
MTRNBC
METAR KNBC 180056Z 00000KT 10SM FEW150 SCT250 09/07 A3012 RMK AO2
SLP201 T00940072





000
SAUS42 KCHS 172357
MTRNBC
METAR KNBC 172356Z 00000KT 10SM SCT250 10/06 A3012 RMK AO2 SLP201
T01000061 10183 20100 53014





000
SAUS42 KCHS 172257
MTRNBC
METAR KNBC 172256Z 00000KT 10SM BKN250 12/08 A3010 RMK AO2 SLP192
T01220078





000
SAUS42 KCHS 172157
MTRNBC
METAR KNBC 172156Z 17004KT 10SM BKN250 15/07 A3009 RMK AO2 SLP188
T01500072





000
SAUS42 KCHS 172157
MTRNBC
METAR KNBC 172156Z 17004KT 10SM BKN250 15/07 A3009 RMK AO2 SLP188
T01500072





000
SAUS42 KCHS 172057
MTRNBC
METAR KNBC 172056Z 28005KT 10SM BKN250 17/06 A3008 RMK AO2 SLP187
T01720056 56011





000
SAUS42 KCHS 171957
MTRNBC
METAR KNBC 171956Z 29007KT 10SM BKN250 18/05 A3008 RMK AO2 SLP188
T01830050





000
SAUS42 KCHS 171857
MTRNBC
METAR KNBC 171856Z 23005KT 10SM SCT250 17/04 A3009 RMK AO2 SLP189
T01720044





000
SAUS42 KCHS 171757
MTRNBC
METAR KNBC 171756Z 00000KT 10SM BKN250 17/06 A3011 RMK AO2 SLP198
T01670061 10172 20072 58020





000
SAUS42 KCHS 171657
MTRNBC
METAR KNBC 171656Z 34003KT 10SM FEW100 SCT250 16/04 A3015 RMK AO2
SLP209 T01610044





000
SAUS42 KCHS 171557
MTRNBC
METAR KNBC 171556Z VRB03KT 10SM FEW100 SCT250 14/05 A3017 RMK AO2
SLP216 T01390050





000
SAUS42 KCHS 171457
MTRNBC
METAR KNBC 171456Z 32005KT 10SM FEW100 SCT250 11/04 A3017 RMK AO2
SLP218 T01110044 53006





000
SAUS42 KCHS 171357
MTRNBC
METAR KNBC 171356Z 33007KT 10SM FEW250 09/04 A3017 RMK AO2 SLP215
T00940044





000
SAUS42 KCHS 171257
MTRNBC
METAR KNBC 171256Z 30004KT 10SM FEW100 07/03 A3016 RMK AO2 SLP213
T00720033





000
SAUS42 KCHS 171157
MTRNBC
METAR KNBC 171156Z 31006KT 10SM CLR 08/03 A3015 RMK AO2 SLP211 70001
T00780033 10117 20078 53015





000
SAUS42 KCHS 171116
MTRNBC
SPECI KNBC 171115Z 29007KT 10SM CLR 08/03 A3014 RMK AO2 FIRST
T00780033





000
SAUS42 KCHS 171057
MTRNBC
METAR KNBC 171056Z AUTO 30007KT 10SM CLR 08/03 A3014 RMK AO2 SLP205
T00830033 $





000
SAUS42 KCHS 170957
MTRNBC
METAR KNBC 170956Z AUTO 29007KT 10SM CLR 08/04 A3012 RMK AO2 SLP200
T00830039 $





000
SAUS42 KCHS 170857
MTRNBC
METAR KNBC 170856Z AUTO 29006KT 10SM CLR 09/04 A3011 RMK AO2 SLP196
T00890039 50005 $





000
SAUS42 KCHS 170857
MTRNBC
METAR KNBC 170856Z AUTO 29006KT 10SM CLR 09/04 A3011 RMK AO2 SLP196
T00890039 50005 $





000
SAUS42 KCHS 170757
MTRNBC
METAR KNBC 170756Z AUTO 27006KT 10SM CLR 09/04 A3011 RMK AO2 SLP197
T00940039 $





000
SAUS42 KCHS 170757
MTRNBC
METAR KNBC 170756Z AUTO 27006KT 10SM CLR 09/04 A3011 RMK AO2 SLP197
T00940039 $





000
SAUS42 KCHS 170657
MTRNBC
METAR KNBC 170656Z AUTO 28006KT 10SM CLR 10/04 A3010 RMK AO2 SLP194
T01000039 $





000
SAUS42 KCHS 170557
MTRNBC
METAR KNBC 170556Z AUTO 29007KT 10SM CLR 12/04 A3009 RMK AO2 SLP191
T01170039 10172 20111 51008 $





000
SAUS42 KCHS 170457
MTRNBC
METAR KNBC 170456Z AUTO 30007KT 10SM CLR 13/04 A3009 RMK AO2 SLP191
T01280044 402280044 $





000
SAUS42 KCHS 170457
MTRNBC
METAR KNBC 170456Z AUTO 30007KT 10SM CLR 13/04 A3009 RMK AO2 SLP191
T01280044 402280044 $





000
SAUS42 KCHS 170357
MTRNBC
METAR KNBC 170356Z 29007KT 10SM CLR 14/05 A3009 RMK AO2 SLP188 LAST
T01390050 $





000
SAUS42 KCHS 170357
MTRNBC
METAR KNBC 170356Z 29007KT 10SM CLR 14/05 A3009 RMK AO2 SLP188 LAST
T01390050 $





000
SAUS42 KCHS 170257
MTRNBC
METAR KNBC 170256Z 29007KT 10SM CLR 15/06 A3007 RMK AO2 SLP183
T01500061 52023 $





000
SAUS42 KCHS 170157
MTRNBC
METAR KNBC 170156Z 28009KT 10SM CLR 17/09 A3005 RMK AO2 SLP176
T01670089 $





000
SAUS42 KCHS 170057
MTRNBC
METAR KNBC 170056Z 22005KT 9SM CLR 13/12 A3002 RMK AO2 SLP167
T01330117 $





000
SAUS42 KCHS 162357
MTRNBC
METAR KNBC 162356Z 20004KT 10SM FEW030 13/12 A3000 RMK AO2 SLP160
60001 T01330117 10222 20133 51016 $





000
SAUS42 KCHS 162257
MTRNBC
METAR KNBC 162256Z 18003KT 10SM FEW033 16/13 A2999 RMK AO2 SLP156
T01560128 $





000
SAUS42 KCHS 162157
MTRNBC
METAR KNBC 162156Z 19003KT 10SM SCT033 BKN043 BKN050 17/14 A2998 RMK
AO2 SLP151 T01720139 $





000
SAUS42 KCHS 162057
MTRNBC
METAR KNBC 162056Z 18007KT 10SM FEW030 FEW100 SCT250 18/14 A2996 RMK
AO2 SLP145 60001 T01830139 58017 $





000
SAUS42 KCHS 161957
MTRNBC
METAR KNBC 161956Z 17006KT 5SM BR FEW030 BKN037 BKN047 16/14 A2999
RMK AO2 RAB38E53 SLP157 P0001 T01610139 $





000
SAUS42 KCHS 161950
MTRNBC
SPECI KNBC 161949Z 17007KT 2SM -RA BR BKN037 BKN047 OVC055 17/14
A2999 RMK AO2 RAB38 P0001 T01670139 $





000
SAUS42 KCHS 161857
MTRNBC
METAR KNBC 161856Z 18008KT 10SM BKN041 BKN100 21/12 A2999 RMK AO2
SLP155 T02060122 $





000
SAUS42 KCHS 161757
MTRNBC
METAR KNBC 161756Z 16005KT 10SM BKN090 BKN250 21/12 A3001 RMK AO2
SLP162 T02060117 10228 20056 58035 $





000
SAUS42 KCHS 161719
MTRNBC
SPECI KNBC 161717Z 20006KT 10SM SCT090 BKN250 22/11 A3003 RMK AO2
ACFT MSHP T02220106 $





000
SAUS42 KCHS 161657
MTRNBC
METAR KNBC 161656Z VRB04KT 10SM FEW090 SCT250 22/10 A3004 RMK AO2
SLP174 T02170100 $





000
SAUS42 KCHS 161557
MTRNBC
METAR KNBC 161556Z 18005KT 10SM FEW095 19/09 A3008 RMK AO2 SLP187
T01890089 $





000
SAUS42 KCHS 161557
MTRNBC
METAR KNBC 161556Z 18005KT 10SM FEW095 19/09 A3008 RMK AO2 SLP187
T01890089 $





000
SAUS42 KCHS 161457
MTRNBC
METAR KNBC 161456Z 22010KT 7SM BKN050 OVC090 15/08 A3011 RMK AO2
SLP197 T01500078 53007 $





000
SAUS42 KCHS 161357
MTRNBC
METAR KNBC 161356Z 21006KT 7SM FEW045 SCT250 13/09 A3011 RMK AO2
SLP195 T01330089 $





000
SAUS42 KCHS 161257
MTRNBC
METAR KNBC 161256Z 17003KT 8SM FEW250 08/06 A3010 RMK AO2 SLP192
T00780061





000
SAUS42 KCHS 161157
MTRNBC
METAR KNBC 161156Z 15003KT 9SM FEW030 FEW250 06/04 A3009 RMK AO2
SLP190 FIRST 60000 T00610044 10072 20044 53003





000
SAUS42 KCHS 161133
MTRNBC
SPECI KNBC 161132Z 20003KT 8SM FEW030 FEW250 06/04 A3010 RMK AO2
FIRST T00560044





000
SAUS42 KCHS 161057
MTRNBC
METAR KNBC 161056Z AUTO 18003KT 8SM CLR 07/05 A3009 RMK AO2 SLP189
T00670050 $





000
SAUS42 KCHS 160957
MTRNBC
METAR KNBC 160956Z AUTO 23005KT 8SM CLR 06/05 A3009 RMK AO2 SLP188
T00610050 $





000
SAUS42 KCHS 160857
MTRNBC
METAR KNBC 160856Z AUTO 00000KT 6SM BR CLR 07/05 A3008 RMK AO2
SLP188 60000 T00670050 58003 $





000
SAUS42 KCHS 160757
MTRNBC
METAR KNBC 160756Z AUTO 00000KT 7SM CLR 05/04 A3009 RMK AO2 SLP189
T00500039 $





000
SAUS42 KCHS 160657
MTRNBC
METAR KNBC 160656Z AUTO 00000KT 7SM CLR 06/04 A3010 RMK AO2 RAE00
SLP192 P0000 T00560044 $





000
SAUS42 KCHS 160557
MTRNBC
METAR KNBC 160556Z AUTO 00000KT 9SM -RA CLR 06/03 A3009 RMK AO2
RAB43 SLP191 P0000 60000 T00560033 10100 20044 56008 $





000
SAUS42 KCHS 160457
MTRNBC
METAR KNBC 160456Z AUTO 00000KT 9SM CLR 06/04 A3010 RMK AO2 SLP194
T00610044 402000017 $





000
SAUS42 KCHS 160457
MTRNBC
METAR KNBC 160456Z AUTO 00000KT 9SM CLR 06/04 A3010 RMK AO2 SLP194
T00610044 402000017 $





000
SAUS42 KCHS 160357
MTRNBC
METAR KNBC 160356Z 15003KT 7SM MIFG CLR 07/06 A3010 RMK AO2 SLP194
LAST T00720061 $





000
SAUS42 KCHS 160357
MTRNBC
METAR KNBC 160356Z 15003KT 7SM MIFG CLR 07/06 A3010 RMK AO2 SLP194
LAST T00720061 $





000
SAUS42 KCHS 160257
MTRNBC
METAR KNBC 160256Z 21004KT 10SM CLR 08/06 A3012 RMK AO2 SLP199
T00830056 53007 $





000
SAUS42 KCHS 160157
MTRNBC
METAR KNBC 160156Z 22005KT 10SM CLR 07/05 A3011 RMK AO2 SLP195
T00720050 $





000
SAUS42 KCHS 160057
MTRNBC
METAR KNBC 160056Z 23005KT 10SM CLR 08/06 A3010 RMK AO2 SLP194
T00830056 $





000
SAUS42 KCHS 152357
MTRNBC
METAR KNBC 152356Z 22003KT 10SM CLR 09/06 A3010 RMK AO2 SLP192
T00940056 10200 20094 53014 $





000
SAUS42 KCHS 152257
MTRNBC
METAR KNBC 152256Z 14004KT 10SM FEW180 SCT250 13/08 A3007 RMK AO2
SLP183 T01280078 $





000
SAUS42 KCHS 152157
MTRNBC
METAR KNBC 152156Z 18004KT 10SM SCT180 BKN250 16/07 A3007 RMK AO2
SLP181 T01560072 $





000
SAUS42 KCHS 152157
MTRNBC
METAR KNBC 152156Z 18004KT 10SM SCT180 BKN250 16/07 A3007 RMK AO2
SLP181 T01560072 $





    US Dept of Commerce
    National Oceanic and Atmospheric Administration
    National Weather Service
    1325 East West Highway
    Silver Spring, MD 20910
    Page Author: NWS Internet Services Team
Disclaimer
Information Quality
Credits
Glossary
Privacy Policy
Freedom of Information Act (FOIA)
About Us
Career Opportunities